八尾空港の過去48時間の天気

八尾空港 (Osaka/Yao)

現在時刻: 1/21 13:11 JST (1/21 04:11 UTC) 以下の時間は現地時間です。

過去48時間のMETAR気象情報
時間 風向 風速(m/s) 視程 気温(℃) 湿度(%) 気圧(hPa) 天気現象
21 12:00 北北西 7 10km以上 10 54 1026
21 11:00 北北西 5 10km以上 10 50 1026
21 10:00 西北西 4 10km以上 9 53 1026
21 09:00 北西 3 10km以上 8 57 1025
21 08:00 北西 2 10km以上 7 61 1024
20 19:00 西 4 10km以上 11 47 1017
20 18:00 西 4 10km以上 11 54 1017
20 17:00 西 6 10km以上 11 50 1016
20 16:00 西 5 10km以上 11 54 1016
20 15:00 西南西 6 10km以上 12 50 1016
20 14:00 西 7 10km以上 12 44 1016
20 13:00 西 8 10km以上 12 47 1016
20 12:00 西 6 10km以上 12 44 1017
20 11:00 西 7 10km以上 11 54 1018
20 10:00 西南西 3 10km以上 11 58 1018
20 09:00 2 10km以上 8 66 1018
20 08:00 南東 1 10km以上 6 81 1018
RJOY 210300Z 33013KT 9999 FEW035 BKN045 10/01 Q1026
RJOY 210200Z 33009KT 9999 FEW030 SCT040 10/00 Q1026
RJOY 210100Z 30007KT 260V320 9999 FEW030 SCT070 09/00 Q1026
RJOY 210000Z 32005KT 9999 FEW030 SCT040 BKN050 08/00 Q1025
RJOY 202300Z 31004KT 280V350 9999 FEW030 BKN050 07/00 Q1024
RJOY 201000Z 28007KT 9999 FEW030 BKN060 11/00 Q1017
RJOY 200900Z 27007KT 9999 FEW030 SCT060 BKN070 11/02 Q1017
RJOY 200800Z 27011KT 9999 FEW030 SCT040 BKN050 11/01 Q1016
RJOY 200700Z 26010KT 9999 FEW030 SCT070 11/02 Q1016
RJOY 200600Z 25011KT 210V290 9999 FEW030 12/02 Q1016
RJOY 200500Z 27014KT 9999 FEW030 SCT070 12/00 Q1016
RJOY 200400Z 28016KT 9999 FEW030 SCT060 12/01 Q1016
RJOY 200300Z 26012KT 210V290 9999 FEW030 SCT070 12/M00 Q1017
RJOY 200200Z 27013KT 9999 FEW030 BKN070 11/02 Q1018
RJOY 200100Z 25006KT 190V280 9999 FEW030 BKN070 11/03 Q1018
RJOY 200000Z 17003KT 110V260 9999 FEW030 BKN060 08/02 Q1018
RJOY 192300Z 13002KT 9999 FEW030 BKN060 06/03 Q1018